sensor_id;sensor_type;location;lat;lon;timestamp;pressure;altitude;pressure_sealevel;temperature;humidity
22389;BME280;11362;48.102;11.620;2023-04-20T00:01:30;95075.84;;;20.64;33.69
22389;BME280;11362;48.102;11.620;2023-04-20T00:03:55;95071.88;;;20.65;33.42
22389;BME280;11362;48.102;11.620;2023-04-20T00:06:21;95069.13;;;20.65;33.41
22389;BME280;11362;48.102;11.620;2023-04-20T00:08:46;95062.03;;;20.64;33.57
22389;BME280;11362;48.102;11.620;2023-04-20T00:11:11;95067.56;;;20.64;33.63
22389;BME280;11362;48.102;11.620;2023-04-20T00:13:36;95063.59;;;20.65;33.66
22389;BME280;11362;48.102;11.620;2023-04-20T00:16:02;95061.25;;;20.63;33.43
22389;BME280;11362;48.102;11.620;2023-04-20T00:18:27;95050.19;;;20.63;33.60
22389;BME280;11362;48.102;11.620;2023-04-20T00:20:53;95052.56;;;20.65;33.41
22389;BME280;11362;48.102;11.620;2023-04-20T00:23:18;95059.28;;;20.64;33.60
22389;BME280;11362;48.102;11.620;2023-04-20T00:25:43;95042.72;;;20.64;33.33
22389;BME280;11362;48.102;11.620;2023-04-20T00:28:08;95045.47;;;20.64;33.53
22389;BME280;11362;48.102;11.620;2023-04-20T00:30:34;95032.88;;;20.63;33.58
22389;BME280;11362;48.102;11.620;2023-04-20T00:32:59;95027.34;;;20.63;33.54
22389;BME280;11362;48.102;11.620;2023-04-20T00:35:24;95024.97;;;20.65;33.37
22389;BME280;11362;48.102;11.620;2023-04-20T00:37:50;95026.53;;;20.66;33.46
22389;BME280;11362;48.102;11.620;2023-04-20T00:40:15;95019.84;;;20.63;33.56
22389;BME280;11362;48.102;11.620;2023-04-20T00:42:40;95021.44;;;20.64;33.45
22389;BME280;11362;48.102;11.620;2023-04-20T00:45:06;95021.44;;;20.64;33.27
22389;BME280;11362;48.102;11.620;2023-04-20T00:47:31;95013.16;;;20.64;33.51
22389;BME280;11362;48.102;11.620;2023-04-20T00:49:56;95009.97;;;20.66;33.53
22389;BME280;11362;48.102;11.620;2023-04-20T00:52:22;95006.84;;;20.64;33.44
22389;BME280;11362;48.102;11.620;2023-04-20T00:54:47;95001.31;;;20.64;33.34
22389;BME280;11362;48.102;11.620;2023-04-20T00:57:13;95004.88;;;20.64;33.29
22389;BME280;11362;48.102;11.620;2023-04-20T00:59:39;95001.31;;;20.64;33.36
22389;BME280;11362;48.102;11.620;2023-04-20T01:02:05;95002.53;;;20.63;33.50
22389;BME280;11362;48.102;11.620;2023-04-20T01:04:30;94993.44;;;20.62;33.45
22389;BME280;11362;48.102;11.620;2023-04-20T01:06:56;94988.72;;;20.63;33.39
22389;BME280;11362;48.102;11.620;2023-04-20T01:09:21;94987.53;;;20.64;33.54
22389;BME280;11362;48.102;11.620;2023-04-20T01:11:47;94981.63;;;20.62;33.39
22389;BME280;11362;48.102;11.620;2023-04-20T01:14:12;94970.59;;;20.62;33.56
22389;BME280;11362;48.102;11.620;2023-04-20T01:16:37;94971.38;;;20.62;33.42
22389;BME280;11362;48.102;11.620;2023-04-20T01:19:03;94966.66;;;20.63;33.47
22389;BME280;11362;48.102;11.620;2023-04-20T01:21:28;94957.19;;;20.64;33.44
22389;BME280;11362;48.102;11.620;2023-04-20T01:23:53;94952.84;;;20.63;33.29
22389;BME280;11362;48.102;11.620;2023-04-20T01:26:20;94958.38;;;20.63;33.43
22389;BME280;11362;48.102;11.620;2023-04-20T01:28:45;94957.97;;;20.64;33.52
22389;BME280;11362;48.102;11.620;2023-04-20T01:31:12;94953.63;;;20.63;33.37
22389;BME280;11362;48.102;11.620;2023-04-20T01:33:38;94961.13;;;20.63;33.54
22389;BME280;11362;48.102;11.620;2023-04-20T01:36:05;94960.34;;;20.62;33.39
22389;BME280;11362;48.102;11.620;2023-04-20T01:38:31;94965.09;;;20.62;33.32
22389;BME280;11362;48.102;11.620;2023-04-20T01:40:56;94963.88;;;20.63;33.33
22389;BME280;11362;48.102;11.620;2023-04-20T01:43:22;94955.25;;;20.61;33.24
22389;BME280;11362;48.102;11.620;2023-04-20T01:45:47;94966.66;;;20.63;33.35
22389;BME280;11362;48.102;11.620;2023-04-20T01:48:12;94967.84;;;20.62;33.27
22389;BME280;11362;48.102;11.620;2023-04-20T01:50:38;94957.19;;;20.64;33.32
22389;BME280;11362;48.102;11.620;2023-04-20T01:53:03;94958.38;;;20.63;33.35
22389;BME280;11362;48.102;11.620;2023-04-20T01:55:28;94956.81;;;20.62;33.20
22389;BME280;11362;48.102;11.620;2023-04-20T01:57:54;94957.56;;;20.62;33.31
22389;BME280;11362;48.102;11.620;2023-04-20T02:00:19;94960.72;;;20.64;33.54
22389;BME280;11362;48.102;11.620;2023-04-20T02:02:44;94950.09;;;20.63;33.52
22389;BME280;11362;48.102;11.620;2023-04-20T02:05:10;94947.34;;;20.63;33.29
22389;BME280;11362;48.102;11.620;2023-04-20T02:07:35;94946.13;;;20.64;33.59
22389;BME280;11362;48.102;11.620;2023-04-20T02:10:01;94932.75;;;20.62;33.41
22389;BME280;11362;48.102;11.620;2023-04-20T02:12:26;94936.69;;;20.61;33.55
22389;BME280;11362;48.102;11.620;2023-04-20T02:14:51;94935.13;;;20.60;33.65
22389;BME280;11362;48.102;11.620;2023-04-20T02:17:17;94937.50;;;20.62;33.42
22389;BME280;11362;48.102;11.620;2023-04-20T02:19:42;94937.50;;;20.62;33.13
22389;BME280;11362;48.102;11.620;2023-04-20T02:22:08;94931.19;;;20.61;33.42
22389;BME280;11362;48.102;11.620;2023-04-20T02:24:33;94940.66;;;20.60;33.31
22389;BME280;11362;48.102;11.620;2023-04-20T02:26:58;94941.03;;;20.62;33.42
22389;BME280;11362;48.102;11.620;2023-04-20T02:29:24;94926.44;;;20.62;33.21
22389;BME280;11362;48.102;11.620;2023-04-20T02:31:49;94929.22;;;20.62;32.92
22389;BME280;11362;48.102;11.620;2023-04-20T02:34:15;94932.75;;;20.62;33.29
22389;BME280;11362;48.102;11.620;2023-04-20T02:36:40;94931.97;;;20.62;33.39
22389;BME280;11362;48.102;11.620;2023-04-20T02:39:05;94924.88;;;20.61;33.31
22389;BME280;11362;48.102;11.620;2023-04-20T02:41:30;94922.13;;;20.61;33.30
22389;BME280;11362;48.102;11.620;2023-04-20T02:43:56;94922.50;;;20.63;33.38
22389;BME280;11362;48.102;11.620;2023-04-20T02:46:21;94916.19;;;20.62;33.24
22389;BME280;11362;48.102;11.620;2023-04-20T02:48:46;94909.09;;;20.61;33.32
22389;BME280;11362;48.102;11.620;2023-04-20T02:51:12;94913.06;;;20.60;33.30
22389;BME280;11362;48.102;11.620;2023-04-20T02:53:37;94908.34;;;20.61;33.17
22389;BME280;11362;48.102;11.620;2023-04-20T02:56:02;94907.53;;;20.60;33.39
22389;BME280;11362;48.102;11.620;2023-04-20T02:58:28;94900.06;;;20.61;33.34
22389;BME280;11362;48.102;11.620;2023-04-20T03:00:59;94891.78;;;20.61;33.34
22389;BME280;11362;48.102;11.620;2023-04-20T03:03:25;94894.09;;;20.62;33.12
22389;BME280;11362;48.102;11.620;2023-04-20T03:05:50;94891.78;;;20.61;33.13
22389;BME280;11362;48.102;11.620;2023-04-20T03:08:15;94887.03;;;20.61;33.19
22389;BME280;11362;48.102;11.620;2023-04-20T03:10:40;94887.81;;;20.62;33.05
22389;BME280;11362;48.102;11.620;2023-04-20T03:13:06;94893.75;;;20.60;33.30
22389;BME280;11362;48.102;11.620;2023-04-20T03:15:31;94892.53;;;20.61;33.14
22389;BME280;11362;48.102;11.620;2023-04-20T03:17:56;94890.94;;;20.64;33.17
22389;BME280;11362;48.102;11.620;2023-04-20T03:20:22;94894.09;;;20.62;33.15
22389;BME280;11362;48.102;11.620;2023-04-20T03:22:47;94896.09;;;20.62;33.26
22389;BME280;11362;48.102;11.620;2023-04-20T03:25:12;94887.03;;;20.61;33.33
22389;BME280;11362;48.102;11.620;2023-04-20T03:27:37;94884.63;;;20.63;33.16
22389;BME280;11362;48.102;11.620;2023-04-20T03:30:03;94889.38;;;20.63;33.16
22389;BME280;11362;48.102;11.620;2023-04-20T03:32:29;94880.31;;;20.62;33.33
22389;BME280;11362;48.102;11.620;2023-04-20T03:34:54;94879.94;;;20.60;33.44
22389;BME280;11362;48.102;11.620;2023-04-20T03:37:19;94887.03;;;20.61;33.31
22389;BME280;11362;48.102;11.620;2023-04-20T03:39:44;94877.97;;;20.61;33.19
22389;BME280;11362;48.102;11.620;2023-04-20T03:42:10;94879.16;;;20.60;33.42
22389;BME280;11362;48.102;11.620;2023-04-20T03:44:35;94879.16;;;20.60;33.29
22389;BME280;11362;48.102;11.620;2023-04-20T03:47:00;94871.66;;;20.60;33.32
22389;BME280;11362;48.102;11.620;2023-04-20T03:49:28;94873.63;;;20.60;33.29
22389;BME280;11362;48.102;11.620;2023-04-20T03:51:53;94877.97;;;20.61;33.07
22389;BME280;11362;48.102;11.620;2023-04-20T03:54:18;94868.50;;;20.62;33.29
22389;BME280;11362;48.102;11.620;2023-04-20T03:56:44;94862.19;;;20.61;33.08
22389;BME280;11362;48.102;11.620;2023-04-20T03:59:09;94863.38;;;20.60;33.26
22389;BME280;11362;48.102;11.620;2023-04-20T04:01:35;94875.22;;;20.61;33.27
22389;BME280;11362;48.102;11.620;2023-04-20T04:04:00;94859.06;;;20.59;33.25
22389;BME280;11362;48.102;11.620;2023-04-20T04:06:26;94864.94;;;20.61;33.19
22389;BME280;11362;48.102;11.620;2023-04-20T04:08:51;94866.94;;;20.61;33.20
22389;BME280;11362;48.102;11.620;2023-04-20T04:11:16;94862.19;;;20.61;33.09
22389;BME280;11362;48.102;11.620;2023-04-20T04:13:41;94850.38;;;20.61;33.25
22389;BME280;11362;48.102;11.620;2023-04-20T04:16:07;94839.75;;;20.59;33.18
22389;BME280;11362;48.102;11.620;2023-04-20T04:18:32;94848.03;;;20.59;33.03
22389;BME280;11362;48.102;11.620;2023-04-20T04:20:58;94852.34;;;20.60;33.20
22389;BME280;11362;48.102;11.620;2023-04-20T04:23:23;94850.00;;;20.59;32.94
22389;BME280;11362;48.102;11.620;2023-04-20T04:25:49;94851.56;;;20.60;32.96
22389;BME280;11362;48.102;11.620;2023-04-20T04:28:14;94846.03;;;20.60;33.38
22389;BME280;11362;48.102;11.620;2023-04-20T04:30:40;94847.63;;;20.61;33.19
22389;BME280;11362;48.102;11.620;2023-04-20T04:33:05;94846.03;;;20.60;32.80
22389;BME280;11362;48.102;11.620;2023-04-20T04:35:31;94837.75;;;20.60;33.10
22389;BME280;11362;48.102;11.620;2023-04-20T04:37:56;94844.47;;;20.59;33.12
22389;BME280;11362;48.102;11.620;2023-04-20T04:40:21;94846.84;;;20.60;33.20
22389;BME280;11362;48.102;11.620;2023-04-20T04:42:46;94847.63;;;20.61;32.97
22389;BME280;11362;48.102;11.620;2023-04-20T04:45:12;94841.31;;;20.60;33.12
22389;BME280;11362;48.102;11.620;2023-04-20T04:47:37;94846.03;;;20.60;33.03
22389;BME280;11362;48.102;11.620;2023-04-20T04:50:03;94844.88;;;20.61;33.11
22389;BME280;11362;48.102;11.620;2023-04-20T04:52:29;94844.88;;;20.61;33.04
22389;BME280;11362;48.102;11.620;2023-04-20T04:54:54;94839.75;;;20.59;32.98
22389;BME280;11362;48.102;11.620;2023-04-20T04:57:19;94836.59;;;20.61;33.03
22389;BME280;11362;48.102;11.620;2023-04-20T04:59:45;94842.88;;;20.61;33.07
22389;BME280;11362;48.102;11.620;2023-04-20T05:02:10;94831.84;;;20.61;33.25
22389;BME280;11362;48.102;11.620;2023-04-20T05:04:35;94840.13;;;20.61;33.15
22389;BME280;11362;48.102;11.620;2023-04-20T05:07:01;94844.06;;;20.60;33.15
22389;BME280;11362;48.102;11.620;2023-04-20T05:09:26;94837.34;;;20.61;33.01
22389;BME280;11362;48.102;11.620;2023-04-20T05:11:51;94837.75;;;20.60;33.09
22389;BME280;11362;48.102;11.620;2023-04-20T05:14:16;94844.88;;;20.61;32.96
22389;BME280;11362;48.102;11.620;2023-04-20T05:16:42;94855.91;;;20.61;33.13
22389;BME280;11362;48.102;11.620;2023-04-20T05:19:07;94841.72;;;20.59;33.01
22389;BME280;11362;48.102;11.620;2023-04-20T05:21:32;94844.88;;;20.61;33.11
22389;BME280;11362;48.102;11.620;2023-04-20T05:23:58;94851.56;;;20.60;33.16
22389;BME280;11362;48.102;11.620;2023-04-20T05:26:23;94848.78;;;20.60;33.02
22389;BME280;11362;48.102;11.620;2023-04-20T05:28:48;94844.47;;;20.59;33.17
22389;BME280;11362;48.102;11.620;2023-04-20T05:31:14;94850.00;;;20.59;33.03
22389;BME280;11362;48.102;11.620;2023-04-20T05:33:39;94849.59;;;20.60;33.20
22389;BME280;11362;48.102;11.620;2023-04-20T05:36:07;94848.03;;;20.59;32.97
22389;BME280;11362;48.102;11.620;2023-04-20T05:38:33;94845.28;;;20.59;32.88
22389;BME280;11362;48.102;11.620;2023-04-20T05:40:58;94846.84;;;20.60;32.88
22389;BME280;11362;48.102;11.620;2023-04-20T05:43:23;94839.75;;;20.59;32.91
22389;BME280;11362;48.102;11.620;2023-04-20T05:45:49;94835.00;;;20.60;33.24
22389;BME280;11362;48.102;11.620;2023-04-20T05:48:14;94843.69;;;20.58;33.01
22389;BME280;11362;48.102;11.620;2023-04-20T05:50:40;94837.00;;;20.59;32.97
22389;BME280;11362;48.102;11.620;2023-04-20T05:53:05;94833.44;;;20.59;32.86
22389;BME280;11362;48.102;11.620;2023-04-20T05:55:30;94835.81;;;20.57;32.98
22389;BME280;11362;48.102;11.620;2023-04-20T05:57:56;94839.38;;;20.57;33.10
22389;BME280;11362;48.102;11.620;2023-04-20T06:00:21;94837.38;;;20.58;32.81
22389;BME280;11362;48.102;11.620;2023-04-20T06:02:47;94837.38;;;20.58;32.92
22389;BME280;11362;48.102;11.620;2023-04-20T06:05:12;94837.38;;;20.58;32.96
22389;BME280;11362;48.102;11.620;2023-04-20T06:07:38;94838.94;;;20.59;32.89
22389;BME280;11362;48.102;11.620;2023-04-20T06:10:04;94837.00;;;20.59;33.01
22389;BME280;11362;48.102;11.620;2023-04-20T06:12:30;94840.50;;;20.60;32.84
22389;BME280;11362;48.102;11.620;2023-04-20T06:14:56;94844.47;;;20.59;32.96
22389;BME280;11362;48.102;11.620;2023-04-20T06:17:21;94837.00;;;20.59;32.94
22389;BME280;11362;48.102;11.620;2023-04-20T06:19:47;94838.19;;;20.58;32.87
22389;BME280;11362;48.102;11.620;2023-04-20T06:22:12;94830.66;;;20.59;32.94
22389;BME280;11362;48.102;11.620;2023-04-20T06:24:38;94820.44;;;20.59;32.86
22389;BME280;11362;48.102;11.620;2023-04-20T06:27:03;94822.41;;;20.59;33.04
22389;BME280;11362;48.102;11.620;2023-04-20T06:29:29;94820.06;;;20.57;32.83
22389;BME280;11362;48.102;11.620;2023-04-20T06:31:54;94829.91;;;20.58;32.89
22389;BME280;11362;48.102;11.620;2023-04-20T06:34:19;94822.41;;;20.59;33.00
22389;BME280;11362;48.102;11.620;2023-04-20T06:36:45;94822.41;;;20.59;32.93
22389;BME280;11362;48.102;11.620;2023-04-20T06:39:10;94816.88;;;20.59;33.07
22389;BME280;11362;48.102;11.620;2023-04-20T06:41:36;94815.31;;;20.58;33.05
22389;BME280;11362;48.102;11.620;2023-04-20T06:44:02;94805.06;;;20.58;32.93
22389;BME280;11362;48.102;11.620;2023-04-20T06:46:27;94805.47;;;20.57;33.07
22389;BME280;11362;48.102;11.620;2023-04-20T06:48:52;94798.75;;;20.58;32.88
22389;BME280;11362;48.102;11.620;2023-04-20T06:51:18;94798.75;;;20.58;32.87
22389;BME280;11362;48.102;11.620;2023-04-20T06:53:43;94803.09;;;20.59;33.07
22389;BME280;11362;48.102;11.620;2023-04-20T06:56:08;94794.03;;;20.58;32.87
22389;BME280;11362;48.102;11.620;2023-04-20T06:58:33;94798.75;;;20.58;33.02
22389;BME280;11362;48.102;11.620;2023-04-20T07:00:59;94799.13;;;20.60;32.88
22389;BME280;11362;48.102;11.620;2023-04-20T07:03:24;94801.88;;;20.60;32.99
22389;BME280;11362;48.102;11.620;2023-04-20T07:05:49;94801.88;;;20.60;32.94
22389;BME280;11362;48.102;11.620;2023-04-20T07:08:14;94804.28;;;20.58;32.82
22389;BME280;11362;48.102;11.620;2023-04-20T07:10:40;94806.63;;;20.59;33.05
22389;BME280;11362;48.102;11.620;2023-04-20T07:13:05;94802.69;;;20.60;33.24
22389;BME280;11362;48.102;11.620;2023-04-20T07:15:30;94808.19;;;20.60;32.85
22389;BME280;11362;48.102;11.620;2023-04-20T07:17:55;94797.16;;;20.60;32.79
22389;BME280;11362;48.102;11.620;2023-04-20T07:20:21;94804.66;;;20.60;32.95
22389;BME280;11362;48.102;11.620;2023-04-20T07:22:46;94801.88;;;20.60;32.98
22389;BME280;11362;48.102;11.620;2023-04-20T07:25:11;94805.84;;;20.59;32.96
22389;BME280;11362;48.102;11.620;2023-04-20T07:27:38;94812.91;;;20.60;32.92
22389;BME280;11362;48.102;11.620;2023-04-20T07:30:05;94812.91;;;20.60;32.98
22389;BME280;11362;48.102;11.620;2023-04-20T07:32:31;94820.81;;;20.61;32.78
22389;BME280;11362;48.102;11.620;2023-04-20T07:34:56;94817.28;;;20.61;32.98
22389;BME280;11362;48.102;11.620;2023-04-20T07:37:22;94827.50;;;20.60;32.97
22389;BME280;11362;48.102;11.620;2023-04-20T07:39:47;94823.97;;;20.60;32.95
22389;BME280;11362;48.102;11.620;2023-04-20T07:42:12;94832.25;;;20.60;32.96
22389;BME280;11362;48.102;11.620;2023-04-20T07:44:37;94832.66;;;20.58;33.07
22389;BME280;11362;48.102;11.620;2023-04-20T07:47:03;94826.34;;;20.58;33.02
22389;BME280;11362;48.102;11.620;2023-04-20T07:49:28;94829.13;;;20.58;32.96
22389;BME280;11362;48.102;11.620;2023-04-20T07:51:53;94822.41;;;20.59;32.89
22389;BME280;11362;48.102;11.620;2023-04-20T07:54:19;94831.88;;;20.58;32.86
22389;BME280;11362;48.102;11.620;2023-04-20T07:56:44;94837.38;;;20.58;32.99
22389;BME280;11362;48.102;11.620;2023-04-20T07:59:09;94835.81;;;20.57;33.10
22389;BME280;11362;48.102;11.620;2023-04-20T08:01:35;94832.69;;;20.55;32.80
22389;BME280;11362;48.102;11.620;2023-04-20T08:04:00;94844.47;;;20.59;32.94
22389;BME280;11362;48.102;11.620;2023-04-20T08:06:25;94827.16;;;20.58;33.05
22389;BME280;11362;48.102;11.620;2023-04-20T08:08:50;94826.34;;;20.58;32.86
22389;BME280;11362;48.102;11.620;2023-04-20T08:11:16;94826.72;;;20.60;32.85
22389;BME280;11362;48.102;11.620;2023-04-20T08:13:41;94829.47;;;20.60;33.02
22389;BME280;11362;48.102;11.620;2023-04-20T08:16:06;94814.13;;;20.59;32.89
22389;BME280;11362;48.102;11.620;2023-04-20T08:18:32;94812.16;;;20.59;32.82
22389;BME280;11362;48.102;11.620;2023-04-20T08:20:57;94814.53;;;20.61;32.79
22389;BME280;11362;48.102;11.620;2023-04-20T08:23:22;94806.25;;;20.61;32.87
22389;BME280;11362;48.102;11.620;2023-04-20T08:25:47;94818.44;;;20.60;32.85
22389;BME280;11362;48.102;11.620;2023-04-20T08:28:13;94811.78;;;20.57;32.85
22389;BME280;11362;48.102;11.620;2023-04-20T08:30:39;94825.16;;;20.59;32.80
22389;BME280;11362;48.102;11.620;2023-04-20T08:33:04;94820.84;;;20.58;32.90
22389;BME280;11362;48.102;11.620;2023-04-20T08:35:29;94817.31;;;20.57;32.80
22389;BME280;11362;48.102;11.620;2023-04-20T08:37:55;94814.13;;;20.59;32.92
22389;BME280;11362;48.102;11.620;2023-04-20T08:40:20;94807.84;;;20.58;32.86
22389;BME280;11362;48.102;11.620;2023-04-20T08:42:45;94807.03;;;20.58;32.94
22389;BME280;11362;48.102;11.620;2023-04-20T08:45:11;94816.88;;;20.59;32.96
22389;BME280;11362;48.102;11.620;2023-04-20T08:47:37;94820.44;;;20.59;32.78
22389;BME280;11362;48.102;11.620;2023-04-20T08:50:03;94803.09;;;20.59;32.74
22389;BME280;11362;48.102;11.620;2023-04-20T08:52:28;94804.28;;;20.58;32.99
22389;BME280;11362;48.102;11.620;2023-04-20T08:54:54;94808.59;;;20.59;32.79
22389;BME280;11362;48.102;11.620;2023-04-20T08:57:19;94819.63;;;20.59;32.92
22389;BME280;11362;48.102;11.620;2023-04-20T08:59:45;94812.56;;;20.58;32.78
22389;BME280;11362;48.102;11.620;2023-04-20T09:02:11;94808.22;;;20.57;32.90
22389;BME280;11362;48.102;11.620;2023-04-20T09:04:38;94815.69;;;20.60;32.71
22389;BME280;11362;48.102;11.620;2023-04-20T09:07:03;94821.19;;;20.60;32.94
22389;BME280;11362;48.102;11.620;2023-04-20T09:09:29;94823.97;;;20.60;32.85
22389;BME280;11362;48.102;11.620;2023-04-20T09:12:04;94822.41;;;20.59;32.93
22389;BME280;11362;48.102;11.620;2023-04-20T09:14:44;94827.91;;;20.59;32.82
22389;BME280;11362;48.102;11.620;2023-04-20T09:17:09;94827.91;;;20.59;32.63
22389;BME280;11362;48.102;11.620;2023-04-20T09:19:35;94835.00;;;20.60;32.74
22389;BME280;11362;48.102;11.620;2023-04-20T09:22:00;94837.75;;;20.60;32.93
22389;BME280;11362;48.102;11.620;2023-04-20T09:24:33;94839.75;;;20.59;32.80
22389;BME280;11362;48.102;11.620;2023-04-20T09:26:59;94829.91;;;20.58;32.83
22389;BME280;11362;48.102;11.620;2023-04-20T09:29:24;94834.22;;;20.59;32.87
22389;BME280;11362;48.102;11.620;2023-04-20T09:31:50;94821.59;;;20.62;33.05
22389;BME280;11362;48.102;11.620;2023-04-20T09:34:16;94823.56;;;20.61;32.86
22389;BME280;11362;48.102;11.620;2023-04-20T09:36:44;94827.88;;;20.62;32.66
22389;BME280;11362;48.102;11.620;2023-04-20T09:41:37;94822.78;;;20.61;32.72
22389;BME280;11362;48.102;11.620;2023-04-20T09:44:03;94818.84;;;20.62;32.63
22389;BME280;11362;48.102;11.620;2023-04-20T09:46:30;94820.81;;;20.61;32.84
22389;BME280;11362;48.102;11.620;2023-04-20T09:48:56;94812.91;;;20.60;32.85
22389;BME280;11362;48.102;11.620;2023-04-20T09:51:24;94805.03;;;20.62;32.70
22389;BME280;11362;48.102;11.620;2023-04-20T09:53:50;94809.38;;;20.63;32.86
22389;BME280;11362;48.102;11.620;2023-04-20T09:56:16;94796.75;;;20.62;32.75
22389;BME280;11362;48.102;11.620;2023-04-20T09:58:42;94800.28;;;20.62;32.74
22389;BME280;11362;48.102;11.620;2023-04-20T10:01:10;94808.56;;;20.62;32.68
22389;BME280;11362;48.102;11.620;2023-04-20T10:03:35;94813.69;;;20.64;32.61
22389;BME280;11362;48.102;11.620;2023-04-20T10:06:01;94816.84;;;20.62;32.73
22389;BME280;11362;48.102;11.620;2023-04-20T10:08:26;94807.81;;;20.62;32.60
22389;BME280;11362;48.102;11.620;2023-04-20T10:10:51;94794.78;;;20.62;32.59
22389;BME280;11362;48.102;11.620;2023-04-20T10:13:16;94803.47;;;20.61;32.73
22389;BME280;11362;48.102;11.620;2023-04-20T10:15:42;94805.03;;;20.62;32.78
22389;BME280;11362;48.102;11.620;2023-04-20T10:18:18;94799.53;;;20.62;32.52
22389;BME280;11362;48.102;11.620;2023-04-20T10:20:44;94804.25;;;20.61;32.79
22389;BME280;11362;48.102;11.620;2023-04-20T10:23:10;94809.38;;;20.63;33.12
22389;BME280;11362;48.102;11.620;2023-04-20T10:25:36;94809.75;;;20.61;32.78
22389;BME280;11362;48.102;11.620;2023-04-20T10:28:03;94803.47;;;20.61;32.89
22389;BME280;11362;48.102;11.620;2023-04-20T10:30:30;94793.22;;;20.61;32.80
22389;BME280;11362;48.102;11.620;2023-04-20T10:35:52;94792.44;;;20.61;32.70
22389;BME280;11362;48.102;11.620;2023-04-20T10:38:38;94788.09;;;20.60;32.76
22389;BME280;11362;48.102;11.620;2023-04-20T10:41:10;94782.97;;;20.62;32.70
22389;BME280;11362;48.102;11.620;2023-04-20T10:43:36;94786.94;;;20.61;32.70
22389;BME280;11362;48.102;11.620;2023-04-20T10:46:01;94792.44;;;20.61;32.67
22389;BME280;11362;48.102;11.620;2023-04-20T10:48:26;94791.25;;;20.62;32.83
22389;BME280;11362;48.102;11.620;2023-04-20T10:50:52;94787.69;;;20.61;32.66
22389;BME280;11362;48.102;11.620;2023-04-20T10:53:19;94775.09;;;20.60;32.86
22389;BME280;11362;48.102;11.620;2023-04-20T10:55:45;94779.81;;;20.60;32.84
22389;BME280;11362;48.102;11.620;2023-04-20T10:58:21;94773.13;;;20.61;32.72
22389;BME280;11362;48.102;11.620;2023-04-20T11:00:55;94778.22;;;20.62;32.76
22389;BME280;11362;48.102;11.620;2023-04-20T11:03:21;94773.91;;;20.61;32.63
22389;BME280;11362;48.102;11.620;2023-04-20T11:05:49;94766.41;;;20.62;32.77
22389;BME280;11362;48.102;11.620;2023-04-20T11:08:14;94764.84;;;20.61;32.74
22389;BME280;11362;48.102;11.620;2023-04-20T11:10:41;94764.06;;;20.60;32.82
22389;BME280;11362;48.102;11.620;2023-04-20T11:13:17;94752.22;;;20.60;32.84
22389;BME280;11362;48.102;11.620;2023-04-20T11:15:43;94750.25;;;20.60;32.73
22389;BME280;11362;48.102;11.620;2023-04-20T11:18:09;94755.38;;;20.62;32.83
22389;BME280;11362;48.102;11.620;2023-04-20T11:20:35;94749.06;;;20.61;32.84
22389;BME280;11362;48.102;11.620;2023-04-20T11:23:00;94744.34;;;20.62;33.08
22389;BME280;11362;48.102;11.620;2023-04-20T11:25:26;94747.09;;;20.62;32.87
22389;BME280;11362;48.102;11.620;2023-04-20T11:27:51;94740.03;;;20.61;32.86
22389;BME280;11362;48.102;11.620;2023-04-20T11:30:16;94737.25;;;20.61;32.52
22389;BME280;11362;48.102;11.620;2023-04-20T11:32:42;94737.25;;;20.61;32.90
22389;BME280;11362;48.102;11.620;2023-04-20T11:35:08;94741.59;;;20.62;32.89
22389;BME280;11362;48.102;11.620;2023-04-20T11:37:45;94743.94;;;20.60;32.84
22389;BME280;11362;48.102;11.620;2023-04-20T11:40:11;94740.03;;;20.61;32.69
22389;BME280;11362;48.102;11.620;2023-04-20T11:42:36;94737.25;;;20.61;32.94
22389;BME280;11362;48.102;11.620;2023-04-20T11:45:01;94743.53;;;20.61;32.82
22389;BME280;11362;48.102;11.620;2023-04-20T11:47:27;94735.25;;;20.61;32.69
22389;BME280;11362;48.102;11.620;2023-04-20T11:49:52;94729.75;;;20.61;32.86
22389;BME280;11362;48.102;11.620;2023-04-20T11:52:17;94728.53;;;20.62;32.88
22389;BME280;11362;48.102;11.620;2023-04-20T11:54:43;94727.78;;;20.62;32.69
22389;BME280;11362;48.102;11.620;2023-04-20T11:57:08;94726.59;;;20.63;32.76
22389;BME280;11362;48.102;11.620;2023-04-20T11:59:33;94722.25;;;20.62;33.05
22389;BME280;11362;48.102;11.620;2023-04-20T12:01:59;94717.50;;;20.62;32.90
22389;BME280;11362;48.102;11.620;2023-04-20T12:04:24;94720.72;;;20.61;32.95
22389;BME280;11362;48.102;11.620;2023-04-20T12:06:49;94731.31;;;20.62;33.02
22389;BME280;11362;48.102;11.620;2023-04-20T12:09:14;94734.06;;;20.62;32.90
22389;BME280;11362;48.102;11.620;2023-04-20T12:11:40;94734.06;;;20.62;32.74
22389;BME280;11362;48.102;11.620;2023-04-20T12:14:05;94729.75;;;20.61;32.74
22389;BME280;11362;48.102;11.620;2023-04-20T12:16:30;94726.59;;;20.63;32.88
22389;BME280;11362;48.102;11.620;2023-04-20T12:18:55;94718.31;;;20.63;32.73
22389;BME280;11362;48.102;11.620;2023-04-20T12:21:21;94725.78;;;20.62;32.90
22389;BME280;11362;48.102;11.620;2023-04-20T12:23:46;94737.22;;;20.64;32.74
22389;BME280;11362;48.102;11.620;2023-04-20T12:26:11;94720.28;;;20.62;32.87
22389;BME280;11362;48.102;11.620;2023-04-20T12:28:38;94719.06;;;20.63;32.86
22389;BME280;11362;48.102;11.620;2023-04-20T12:31:03;94709.63;;;20.64;32.88
22389;BME280;11362;48.102;11.620;2023-04-20T12:33:28;94705.28;;;20.63;32.98
22389;BME280;11362;48.102;11.620;2023-04-20T12:35:54;94708.84;;;20.64;32.48
22389;BME280;11362;48.102;11.620;2023-04-20T12:38:19;94696.59;;;20.65;32.85
22389;BME280;11362;48.102;11.620;2023-04-20T12:40:44;94690.72;;;20.63;32.90
22389;BME280;11362;48.102;11.620;2023-04-20T12:43:09;94694.25;;;20.63;32.83
22389;BME280;11362;48.102;11.620;2023-04-20T12:45:35;94702.13;;;20.65;32.86
22389;BME280;11362;48.102;11.620;2023-04-20T12:48:00;94696.59;;;20.65;32.78